sensor_id;sensor_type;location;lat;lon;timestamp;pressure;altitude;pressure_sealevel;temperature;humidity
22930;BME280;11630;42.660;23.292;2023-03-18T00:00:27;67856.23;;;2.81;100.00
22930;BME280;11630;42.660;23.292;2023-03-18T00:02:58;67839.78;;;2.70;100.00
22930;BME280;11630;42.660;23.292;2023-03-18T00:05:29;67830.08;;;2.61;100.00
22930;BME280;11630;42.660;23.292;2023-03-18T00:08:01;67832.76;;;2.61;100.00
22930;BME280;11630;42.660;23.292;2023-03-18T00:10:33;67830.61;;;2.61;100.00
22930;BME280;11630;42.660;23.292;2023-03-18T00:13:03;67820.91;;;2.55;100.00
22930;BME280;11630;42.660;23.292;2023-03-18T00:15:34;67819.53;;;2.50;100.00
22930;BME280;11630;42.660;23.292;2023-03-18T00:18:04;67819.80;;;2.51;100.00
22930;BME280;11630;42.660;23.292;2023-03-18T00:20:35;67818.20;;;2.50;100.00
22930;BME280;11630;42.660;23.292;2023-03-18T00:23:07;67811.72;;;2.44;100.00
22930;BME280;11630;42.660;23.292;2023-03-18T00:25:39;67826.30;;;2.57;100.00
22930;BME280;11630;42.660;23.292;2023-03-18T00:28:10;67824.92;;;2.55;100.00
22930;BME280;11630;42.660;23.292;2023-03-18T00:30:41;67814.97;;;2.47;100.00
22930;BME280;11630;42.660;23.292;2023-03-18T00:33:11;67804.16;;;2.37;100.00
22930;BME280;11630;42.660;23.292;2023-03-18T00:35:42;67806.33;;;2.39;100.00
22930;BME280;11630;42.660;23.292;2023-03-18T00:38:13;67806.58;;;2.38;100.00
22930;BME280;11630;42.660;23.292;2023-03-18T00:40:45;67803.66;;;2.39;100.00
22930;BME280;11630;42.660;23.292;2023-03-18T00:43:23;67796.63;;;2.32;100.00
22930;BME280;11630;42.660;23.292;2023-03-18T00:45:57;67797.97;;;2.32;100.00
22930;BME280;11630;42.660;23.292;2023-03-18T00:48:27;67801.48;;;2.37;100.00
22930;BME280;11630;42.660;23.292;2023-03-18T00:50:57;67791.75;;;2.26;100.00
22930;BME280;11630;42.660;23.292;2023-03-18T00:53:28;67786.63;;;2.22;100.00
22930;BME280;11630;42.660;23.292;2023-03-18T00:55:59;67792.02;;;2.27;100.00
22930;BME280;11630;42.660;23.292;2023-03-18T00:58:30;67808.18;;;2.37;100.00
22930;BME280;11630;42.660;23.292;2023-03-18T01:01:02;67793.61;;;2.26;100.00
22930;BME280;11630;42.660;23.292;2023-03-18T01:03:33;67797.12;;;2.28;100.00
22930;BME280;11630;42.660;23.292;2023-03-18T01:06:04;67792.53;;;2.25;100.00
22930;BME280;11630;42.660;23.292;2023-03-18T01:08:36;67764.75;;;2.01;100.00
22930;BME280;11630;42.660;23.292;2023-03-18T01:11:08;67759.89;;;1.96;100.00
22930;BME280;11630;42.660;23.292;2023-03-18T01:13:38;67761.55;;;2.00;100.00
22930;BME280;11630;42.660;23.292;2023-03-18T01:16:09;67767.45;;;2.03;100.00
22930;BME280;11630;42.660;23.292;2023-03-18T01:18:38;67781.75;;;2.15;100.00
22930;BME280;11630;42.660;23.292;2023-03-18T01:21:09;67775.53;;;2.08;100.00
22930;BME280;11630;42.660;23.292;2023-03-18T01:23:44;67775.79;;;2.07;100.00
22930;BME280;11630;42.660;23.292;2023-03-18T01:26:14;67770.95;;;2.05;100.00
22930;BME280;11630;42.660;23.292;2023-03-18T01:28:46;67740.23;;;1.79;100.00
22930;BME280;11630;42.660;23.292;2023-03-18T01:31:20;67714.84;;;1.53;100.00
22930;BME280;11630;42.660;23.292;2023-03-18T01:33:51;67714.84;;;1.53;100.00
22930;BME280;11630;42.660;23.292;2023-03-18T01:36:22;67709.75;;;1.52;100.00
22930;BME280;11630;42.660;23.292;2023-03-18T01:38:53;67712.97;;;1.53;100.00
22930;BME280;11630;42.660;23.292;2023-03-18T01:41:25;67713.56;;;1.58;100.00
22930;BME280;11630;42.660;23.292;2023-03-18T01:43:56;67722.14;;;1.61;100.00
22930;BME280;11630;42.660;23.292;2023-03-18T01:46:34;67744.79;;;1.82;100.00
22930;BME280;11630;42.660;23.292;2023-03-18T01:49:06;67745.89;;;1.86;100.00
22930;BME280;11630;42.660;23.292;2023-03-18T01:51:39;67755.57;;;1.90;100.00
22930;BME280;11630;42.660;23.292;2023-03-18T01:54:12;67737.23;;;1.75;100.00
22930;BME280;11630;42.660;23.292;2023-03-18T01:56:46;67739.13;;;1.76;100.00
22930;BME280;11630;42.660;23.292;2023-03-18T01:59:21;67749.12;;;1.86;100.00
22930;BME280;11630;42.660;23.292;2023-03-18T02:02:02;67749.12;;;1.86;100.00
22930;BME280;11630;42.660;23.292;2023-03-18T02:04:34;67734.81;;;1.74;100.00
22930;BME280;11630;42.660;23.292;2023-03-18T02:07:05;67729.69;;;1.68;100.00
22930;BME280;11630;42.660;23.292;2023-03-18T02:09:36;67730.77;;;1.69;100.00
22930;BME280;11630;42.660;23.292;2023-03-18T02:12:10;67719.42;;;1.56;100.00
22930;BME280;11630;42.660;23.292;2023-03-18T02:14:41;67700.31;;;1.43;100.00
22930;BME280;11630;42.660;23.292;2023-03-18T02:17:14;67704.09;;;1.46;100.00
22930;BME280;11630;42.660;23.292;2023-03-18T02:22:30;67713.50;;;1.53;100.00
22930;BME280;11630;42.660;23.292;2023-03-18T02:25:20;67722.65;;;1.59;100.00
22930;BME280;11630;42.660;23.292;2023-03-18T02:27:54;67719.95;;;1.57;100.00
22930;BME280;11630;42.660;23.292;2023-03-18T02:30:26;67693.06;;;1.40;100.00
22930;BME280;11630;42.660;23.292;2023-03-18T02:32:53;67691.68;;;1.35;100.00
22930;BME280;11630;42.660;23.292;2023-03-18T02:35:25;67705.70;;;1.48;100.00
22930;BME280;11630;42.660;23.292;2023-03-18T02:37:57;67707.86;;;1.50;100.00
22930;BME280;11630;42.660;23.292;2023-03-18T02:40:33;67728.61;;;1.67;100.00
22930;BME280;11630;42.660;23.292;2023-03-18T02:43:21;67726.42;;;1.63;100.00
22930;BME280;11630;42.660;23.292;2023-03-18T02:46:10;67723.52;;;1.66;100.00
22930;BME280;11630;42.660;23.292;2023-03-18T02:48:40;67732.62;;;1.67;100.00
22930;BME280;11630;42.660;23.292;2023-03-18T02:51:11;67735.64;;;1.76;100.00
22930;BME280;11630;42.660;23.292;2023-03-18T02:53:45;67728.92;;;1.71;100.00
22930;BME280;11630;42.660;23.292;2023-03-18T02:56:16;67711.66;;;1.55;100.00
22930;BME280;11630;42.660;23.292;2023-03-18T02:58:46;67723.73;;;1.60;100.00
22930;BME280;11630;42.660;23.292;2023-03-18T03:01:18;67701.09;;;1.42;100.00
22930;BME280;11630;42.660;23.292;2023-03-18T03:03:49;67697.88;;;1.39;100.00
22930;BME280;11630;42.660;23.292;2023-03-18T03:06:19;67680.89;;;1.25;100.00
22930;BME280;11630;42.660;23.292;2023-03-18T03:08:50;67680.84;;;1.20;100.00
22930;BME280;11630;42.660;23.292;2023-03-18T03:11:21;67677.09;;;1.19;100.00
22930;BME280;11630;42.660;23.292;2023-03-18T03:13:52;67660.11;;;1.04;100.00
22930;BME280;11630;42.660;23.292;2023-03-18T03:16:22;67657.42;;;1.02;100.00
22930;BME280;11630;42.660;23.292;2023-03-18T03:18:53;67645.83;;;0.90;100.00
22930;BME280;11630;42.660;23.292;2023-03-18T03:21:24;67643.94;;;0.89;100.00
22930;BME280;11630;42.660;23.292;2023-03-18T03:23:55;67642.33;;;0.88;100.00
22930;BME280;11630;42.660;23.292;2023-03-18T03:26:26;67645.32;;;0.92;100.00
22930;BME280;11630;42.660;23.292;2023-03-18T03:28:57;67666.63;;;1.13;100.00
22930;BME280;11630;42.660;23.292;2023-03-18T03:31:28;67690.88;;;1.35;100.00
22930;BME280;11630;42.660;23.292;2023-03-18T03:33:59;67698.38;;;1.37;100.00
22930;BME280;11630;42.660;23.292;2023-03-18T03:36:29;67691.94;;;1.34;100.00
22930;BME280;11630;42.660;23.292;2023-03-18T03:38:59;67703.79;;;1.45;100.00
22930;BME280;11630;42.660;23.292;2023-03-18T03:41:30;67690.60;;;1.34;100.00
22930;BME280;11630;42.660;23.292;2023-03-18T03:44:00;67678.44;;;1.19;100.00
22930;BME280;11630;42.660;23.292;2023-03-18T03:46:32;67673.62;;;1.19;100.00
22930;BME280;11630;42.660;23.292;2023-03-18T03:49:03;67671.71;;;1.14;100.00
22930;BME280;11630;42.660;23.292;2023-03-18T03:51:35;67659.02;;;1.01;100.00
22930;BME280;11630;42.660;23.292;2023-03-18T03:54:06;67662.00;;;1.05;100.00
22930;BME280;11630;42.660;23.292;2023-03-18T03:56:37;67665.22;;;1.08;100.00
22930;BME280;11630;42.660;23.292;2023-03-18T03:59:09;67669.83;;;1.13;100.00
22930;BME280;11630;42.660;23.292;2023-03-18T04:01:39;67637.75;;;0.85;100.00
22930;BME280;11630;42.660;23.292;2023-03-18T04:04:10;67638.30;;;0.85;100.00
22930;BME280;11630;42.660;23.292;2023-03-18T04:06:40;67649.05;;;0.93;100.00
22930;BME280;11630;42.660;23.292;2023-03-18T04:09:11;67652.80;;;0.94;100.00
22930;BME280;11630;42.660;23.292;2023-03-18T04:11:42;67661.45;;;1.04;100.00
22930;BME280;11630;42.660;23.292;2023-03-18T04:14:13;67666.84;;;1.07;100.00
22930;BME280;11630;42.660;23.292;2023-03-18T04:16:44;67674.64;;;1.13;100.00
22930;BME280;11630;42.660;23.292;2023-03-18T04:19:15;67672.27;;;1.17;100.00
22930;BME280;11630;42.660;23.292;2023-03-18T04:21:45;67689.77;;;1.32;100.00
22930;BME280;11630;42.660;23.292;2023-03-18T04:24:16;67702.73;;;1.44;100.00
22930;BME280;11630;42.660;23.292;2023-03-18T04:26:47;67707.84;;;1.47;100.00
22930;BME280;11630;42.660;23.292;2023-03-18T04:29:18;67720.78;;;1.59;100.00
22930;BME280;11630;42.660;23.292;2023-03-18T04:31:49;67726.97;;;1.63;100.00
22930;BME280;11630;42.660;23.292;2023-03-18T04:34:20;67706.78;;;1.49;100.00
22930;BME280;11630;42.660;23.292;2023-03-18T04:36:51;67715.67;;;1.55;100.00
22930;BME280;11630;42.660;23.292;2023-03-18T04:39:23;67707.86;;;1.50;100.00
22930;BME280;11630;42.660;23.292;2023-03-18T04:41:53;67714.33;;;1.55;100.00
22930;BME280;11630;42.660;23.292;2023-03-18T04:44:24;67698.91;;;1.38;100.00
22930;BME280;11630;42.660;23.292;2023-03-18T04:46:55;67680.59;;;1.21;100.00
22930;BME280;11630;42.660;23.292;2023-03-18T04:49:26;67683.28;;;1.23;100.00
22930;BME280;11630;42.660;23.292;2023-03-18T04:51:55;67685.47;;;1.28;100.00
22930;BME280;11630;42.660;23.292;2023-03-18T04:54:26;67687.61;;;1.30;100.00
22930;BME280;11630;42.660;23.292;2023-03-18T04:56:58;67678.44;;;1.19;100.00
22930;BME280;11630;42.660;23.292;2023-03-18T04:59:33;67672.77;;;1.15;100.00
22930;BME280;11630;42.660;23.292;2023-03-18T05:02:04;67685.72;;;1.27;100.00
22930;BME280;11630;42.660;23.292;2023-03-18T05:04:34;67676.84;;;1.20;100.00
22930;BME280;11630;42.660;23.292;2023-03-18T05:07:05;67684.64;;;1.26;100.00
22930;BME280;11630;42.660;23.292;2023-03-18T05:09:36;67671.71;;;1.14;100.00
22930;BME280;11630;42.660;23.292;2023-03-18T05:12:10;67695.14;;;1.34;100.00
22930;BME280;11630;42.660;23.292;2023-03-18T05:14:38;67688.19;;;1.33;100.00
22930;BME280;11630;42.660;23.292;2023-03-18T05:17:10;67687.89;;;1.29;100.00
22930;BME280;11630;42.660;23.292;2023-03-18T05:19:46;67659.59;;;1.04;100.00
22930;BME280;11630;42.660;23.292;2023-03-18T05:22:18;67680.61;;;1.23;100.00
22930;BME280;11630;42.660;23.292;2023-03-18T05:24:49;67662.02;;;1.07;100.00
22930;BME280;11630;42.660;23.292;2023-03-18T05:27:22;67637.81;;;0.90;100.00
22930;BME280;11630;42.660;23.292;2023-03-18T05:29:55;67635.83;;;0.77;100.00
22930;BME280;11630;42.660;23.292;2023-03-18T05:32:25;67633.16;;;0.77;100.00
22930;BME280;11630;42.660;23.292;2023-03-18T05:34:56;67626.44;;;0.74;100.00
22930;BME280;11630;42.660;23.292;2023-03-18T05:37:26;67653.63;;;0.96;100.00
22930;BME280;11630;42.660;23.292;2023-03-18T05:39:57;67672.27;;;1.17;100.00
22930;BME280;11630;42.660;23.292;2023-03-18T05:42:27;67693.55;;;1.35;100.00
22930;BME280;11630;42.660;23.292;2023-03-18T05:44:58;67711.05;;;1.48;100.00
22930;BME280;11630;42.660;23.292;2023-03-18T05:47:29;67715.67;;;1.55;100.00
22930;BME280;11630;42.660;23.292;2023-03-18T05:49:59;67748.80;;;1.82;100.00
22930;BME280;11630;42.660;23.292;2023-03-18T05:52:31;67781.50;;;2.16;100.00
22930;BME280;11630;42.660;23.292;2023-03-18T05:55:03;67810.89;;;2.42;100.00
22930;BME280;11630;42.660;23.292;2023-03-18T05:57:33;67839.27;;;2.72;100.00
22930;BME280;11630;42.660;23.292;2023-03-18T06:00:04;67829.53;;;2.60;100.00
22930;BME280;11630;42.660;23.292;2023-03-18T06:02:35;67817.68;;;2.52;100.00
22930;BME280;11630;42.660;23.292;2023-03-18T06:05:06;67865.18;;;2.93;100.00
22930;BME280;11630;42.660;23.292;2023-03-18T06:07:37;67858.16;;;2.87;100.00
22930;BME280;11630;42.660;23.292;2023-03-18T06:10:10;67857.33;;;2.85;100.00
22930;BME280;11630;42.660;23.292;2023-03-18T06:12:41;67870.06;;;3.00;100.00
22930;BME280;11630;42.660;23.292;2023-03-18T06:15:12;67856.28;;;2.86;100.00
22930;BME280;11630;42.660;23.292;2023-03-18T06:17:43;67881.67;;;3.12;100.00
22930;BME280;11630;42.660;23.292;2023-03-18T06:20:15;67903.80;;;3.27;100.00
22930;BME280;11630;42.660;23.292;2023-03-18T06:22:46;67926.23;;;3.49;100.00
22930;BME280;11630;42.660;23.292;2023-03-18T06:25:18;67963.78;;;3.82;100.00
22930;BME280;11630;42.660;23.292;2023-03-18T06:27:49;67939.45;;;3.60;100.00
22930;BME280;11630;42.660;23.292;2023-03-18T06:30:20;67989.45;;;4.05;100.00
22930;BME280;11630;42.660;23.292;2023-03-18T06:32:50;67958.13;;;3.81;100.00
22930;BME280;11630;42.660;23.292;2023-03-18T06:35:21;67971.63;;;3.91;100.00
22930;BME280;11630;42.660;23.292;2023-03-18T06:37:52;68002.16;;;4.18;100.00
22930;BME280;11630;42.660;23.292;2023-03-18T06:40:23;67973.24;;;3.92;100.00
22930;BME280;11630;42.660;23.292;2023-03-18T06:42:54;67981.11;;;4.01;100.00
22930;BME280;11630;42.660;23.292;2023-03-18T06:45:25;68000.80;;;4.15;100.00
22930;BME280;11630;42.660;23.292;2023-03-18T06:47:56;68011.64;;;4.28;100.00
22930;BME280;11630;42.660;23.292;2023-03-18T06:50:27;68037.86;;;4.51;100.00
22930;BME280;11630;42.660;23.292;2023-03-18T06:52:58;68017.30;;;4.32;100.00
22930;BME280;11630;42.660;23.292;2023-03-18T06:55:28;68063.58;;;4.75;100.00
22930;BME280;11630;42.660;23.292;2023-03-18T06:57:59;68039.49;;;4.54;100.00
22930;BME280;11630;42.660;23.292;2023-03-18T07:00:31;68106.86;;;5.15;100.00
22930;BME280;11630;42.660;23.292;2023-03-18T07:03:02;68104.14;;;5.10;100.00
22930;BME280;11630;42.660;23.292;2023-03-18T07:05:32;68063.61;;;4.80;100.00
22930;BME280;11630;42.660;23.292;2023-03-18T07:08:03;68059.23;;;4.71;100.00
22930;BME280;11630;42.660;23.292;2023-03-18T07:10:33;68116.92;;;5.31;100.00
22930;BME280;11630;42.660;23.292;2023-03-18T07:13:03;68108.20;;;5.15;100.00
22930;BME280;11630;42.660;23.292;2023-03-18T07:15:33;68154.48;;;5.56;100.00
22930;BME280;11630;42.660;23.292;2023-03-18T07:18:05;68120.38;;;5.25;100.00
22930;BME280;11630;42.660;23.292;2023-03-18T07:20:36;68179.95;;;5.80;100.00
22930;BME280;11630;42.660;23.292;2023-03-18T07:23:07;68125.01;;;5.33;100.00
22930;BME280;11630;42.660;23.292;2023-03-18T07:25:37;68113.91;;;5.24;100.00
22930;BME280;11630;42.660;23.292;2023-03-18T07:28:09;68138.80;;;5.44;100.00
22930;BME280;11630;42.660;23.292;2023-03-18T07:30:39;68182.42;;;5.86;100.00
22930;BME280;11630;42.660;23.292;2023-03-18T07:33:10;68169.66;;;5.73;99.55
22930;BME280;11630;42.660;23.292;2023-03-18T07:35:42;68213.58;;;6.15;97.67
22930;BME280;11630;42.660;23.292;2023-03-18T07:38:15;68202.72;;;6.01;97.23
22930;BME280;11630;42.660;23.292;2023-03-18T07:40:46;68178.91;;;5.84;98.84
22930;BME280;11630;42.660;23.292;2023-03-18T07:43:17;68210.84;;;6.10;96.95
22930;BME280;11630;42.660;23.292;2023-03-18T07:45:48;68154.47;;;5.54;99.90
22930;BME280;11630;42.660;23.292;2023-03-18T07:48:19;68240.33;;;6.31;98.23
22930;BME280;11630;42.660;23.292;2023-03-18T07:50:50;68197.86;;;6.01;96.68
22930;BME280;11630;42.660;23.292;2023-03-18T07:53:20;68212.45;;;6.09;96.88
22930;BME280;11630;42.660;23.292;2023-03-18T07:55:51;68268.55;;;6.62;94.17
22930;BME280;11630;42.660;23.292;2023-03-18T07:58:21;68340.38;;;7.27;92.47
22930;BME280;11630;42.660;23.292;2023-03-18T08:00:53;68313.01;;;7.03;91.16
22930;BME280;11630;42.660;23.292;2023-03-18T08:03:23;68326.28;;;7.14;91.44
22930;BME280;11630;42.660;23.292;2023-03-18T08:05:54;68341.47;;;7.30;90.17
22930;BME280;11630;42.660;23.292;2023-03-18T08:08:24;68307.88;;;7.02;90.54
22930;BME280;11630;42.660;23.292;2023-03-18T08:10:57;68307.84;;;6.97;91.95
22930;BME280;11630;42.660;23.292;2023-03-18T08:13:28;68368.59;;;7.55;91.81
22930;BME280;11630;42.660;23.292;2023-03-18T08:16:01;68426.38;;;8.09;85.26
22930;BME280;11630;42.660;23.292;2023-03-18T08:18:31;68365.88;;;7.50;88.00
22930;BME280;11630;42.660;23.292;2023-03-18T08:21:01;68451.91;;;8.30;85.25
22930;BME280;11630;42.660;23.292;2023-03-18T08:23:32;68520.60;;;8.97;81.60
22930;BME280;11630;42.660;23.292;2023-03-18T08:26:03;68500.80;;;8.77;80.60
22930;BME280;11630;42.660;23.292;2023-03-18T08:28:37;68529.56;;;9.04;78.97
22930;BME280;11630;42.660;23.292;2023-03-18T08:31:07;68534.71;;;9.05;78.76
22930;BME280;11630;42.660;23.292;2023-03-18T08:33:38;68444.08;;;8.29;82.43
22930;BME280;11630;42.660;23.292;2023-03-18T08:36:09;68495.34;;;8.70;80.51
22930;BME280;11630;42.660;23.292;2023-03-18T08:38:40;68414.72;;;7.97;84.63
22930;BME280;11630;42.660;23.292;2023-03-18T08:41:11;68373.22;;;7.61;85.32
22930;BME280;11630;42.660;23.292;2023-03-18T08:43:42;68498.09;;;8.77;83.48
22930;BME280;11630;42.660;23.292;2023-03-18T08:46:15;68511.11;;;8.87;81.94
22930;BME280;11630;42.660;23.292;2023-03-18T08:48:47;68407.70;;;7.98;82.00
22930;BME280;11630;42.660;23.292;2023-03-18T08:51:18;68407.13;;;7.95;81.77
22930;BME280;11630;42.660;23.292;2023-03-18T08:53:50;68443.52;;;8.26;81.22
22930;BME280;11630;42.660;23.292;2023-03-18T08:56:21;68520.08;;;8.99;77.89
22930;BME280;11630;42.660;23.292;2023-03-18T08:58:51;68559.17;;;9.29;76.97
22930;BME280;11630;42.660;23.292;2023-03-18T09:01:22;68536.09;;;9.10;79.27
22930;BME280;11630;42.660;23.292;2023-03-18T09:03:53;68584.44;;;9.54;76.02
22930;BME280;11630;42.660;23.292;2023-03-18T09:06:24;68607.82;;;9.75;72.39
22930;BME280;11630;42.660;23.292;2023-03-18T09:08:54;68604.81;;;9.71;74.88
22930;BME280;11630;42.660;23.292;2023-03-18T09:11:24;68666.00;;;10.26;71.13
22930;BME280;11630;42.660;23.292;2023-03-18T09:13:55;68627.11;;;9.94;76.31
22930;BME280;11630;42.660;23.292;2023-03-18T09:16:26;68708.14;;;10.66;74.68
22930;BME280;11630;42.660;23.292;2023-03-18T09:18:57;68702.71;;;10.61;73.41
22930;BME280;11630;42.660;23.292;2023-03-18T09:21:28;68895.71;;;12.35;71.00
22930;BME280;11630;42.660;23.292;2023-03-18T09:23:59;69073.47;;;13.92;77.80
22930;BME280;11630;42.660;23.292;2023-03-18T09:26:30;69032.03;;;13.60;58.26
22930;BME280;11630;42.660;23.292;2023-03-18T09:29:01;69089.05;;;14.10;56.56
22930;BME280;11630;42.660;23.292;2023-03-18T09:31:32;69112.25;;;14.28;56.77
22930;BME280;11630;42.660;23.292;2023-03-18T09:34:03;69175.83;;;14.87;63.05
22930;BME280;11630;42.660;23.292;2023-03-18T09:36:33;69176.93;;;14.93;54.93
22930;BME280;11630;42.660;23.292;2023-03-18T09:39:04;69075.38;;;14.03;52.21
22930;BME280;11630;42.660;23.292;2023-03-18T09:41:50;68967.39;;;13.02;50.68
22930;BME280;11630;42.660;23.292;2023-03-18T09:44:23;69039.38;;;13.63;49.23
22930;BME280;11630;42.660;23.292;2023-03-18T09:47:19;69079.74;;;14.02;44.70
22930;BME280;11630;42.660;23.292;2023-03-18T09:52:36;69107.31;;;14.31;45.75
22930;BME280;11630;42.660;23.292;2023-03-18T09:57:46;69022.73;;;13.54;44.76
22930;BME280;11630;42.660;23.292;2023-03-18T10:00:36;69113.59;;;14.35;42.67
22930;BME280;11630;42.660;23.292;2023-03-18T10:06:16;69158.63;;;14.77;42.73
22930;BME280;11630;42.660;23.292;2023-03-18T10:09:07;69100.22;;;14.19;43.05
22930;BME280;11630;42.660;23.292;2023-03-18T10:11:41;69202.31;;;15.17;39.53
22930;BME280;11630;42.660;23.292;2023-03-18T10:14:46;69147.16;;;14.67;41.17
22930;BME280;11630;42.660;23.292;2023-03-18T10:17:15;69148.26;;;14.68;40.93
22930;BME280;11630;42.660;23.292;2023-03-18T10:19:58;69183.20;;;14.95;39.16
22930;BME280;11630;42.660;23.292;2023-03-18T10:25:40;68986.77;;;13.18;41.54
22930;BME280;11630;42.660;23.292;2023-03-18T10:28:42;68903.36;;;12.47;39.61
22930;BME280;11630;42.660;23.292;2023-03-18T10:31:25;68899.81;;;12.43;41.37
22930;BME280;11630;42.660;23.292;2023-03-18T10:33:56;69113.32;;;14.36;37.33
22930;BME280;11630;42.660;23.292;2023-03-18T10:36:49;69171.73;;;14.87;34.75
22930;BME280;11630;42.660;23.292;2023-03-18T10:39:22;69074.02;;;14.03;35.45
22930;BME280;11630;42.660;23.292;2023-03-18T10:41:53;69196.86;;;15.07;34.67
22930;BME280;11630;42.660;23.292;2023-03-18T10:44:26;69254.77;;;15.62;34.70
22930;BME280;11630;42.660;23.292;2023-03-18T10:47:01;69093.96;;;14.17;36.33
22930;BME280;11630;42.660;23.292;2023-03-18T10:49:34;69036.93;;;13.67;38.61
22930;BME280;11630;42.660;23.292;2023-03-18T10:52:28;68990.84;;;13.26;38.47
22930;BME280;11630;42.660;23.292;2023-03-18T10:54:55;69096.42;;;14.18;37.33
22930;BME280;11630;42.660;23.292;2023-03-18T10:57:27;69008.30;;;13.37;39.00
22930;BME280;11630;42.660;23.292;2023-03-18T10:59:58;68958.41;;;12.93;39.26
22930;BME280;11630;42.660;23.292;2023-03-18T11:02:33;68961.68;;;12.98;41.47
22930;BME280;11630;42.660;23.292;2023-03-18T11:05:23;69076.48;;;13.96;37.69
22930;BME280;11630;42.660;23.292;2023-03-18T11:10:35;68953.50;;;12.88;40.31
22930;BME280;11630;42.660;23.292;2023-03-18T11:13:02;69145.53;;;14.65;36.91
22930;BME280;11630;42.660;23.292;2023-03-18T11:15:41;69181.84;;;14.95;36.07
22930;BME280;11630;42.660;23.292;2023-03-18T11:18:16;69201.22;;;15.16;36.81
22930;BME280;11630;42.660;23.292;2023-03-18T11:20:48;68995.48;;;13.29;40.43
22930;BME280;11630;42.660;23.292;2023-03-18T11:23:32;68965.23;;;13.00;41.57
22930;BME280;11630;42.660;23.292;2023-03-18T11:26:27;68883.18;;;12.24;42.35
22930;BME280;11630;42.660;23.292;2023-03-18T11:29:03;68788.97;;;11.38;44.83
22930;BME280;11630;42.660;23.292;2023-03-18T11:31:29;68739.72;;;10.94;46.71
22930;BME280;11630;42.660;23.292;2023-03-18T11:34:00;68697.28;;;10.56;47.47
22930;BME280;11630;42.660;23.292;2023-03-18T11:36:31;68749.23;;;10.99;46.59
22930;BME280;11630;42.660;23.292;2023-03-18T11:39:03;68678.25;;;10.38;46.72
22930;BME280;11630;42.660;23.292;2023-03-18T11:41:36;68789.23;;;11.42;43.36
22930;BME280;11630;42.660;23.292;2023-03-18T11:44:18;68826.27;;;11.73;41.43
22930;BME280;11630;42.660;23.292;2023-03-18T11:47:00;69009.66;;;13.42;38.61
22930;BME280;11630;42.660;23.292;2023-03-18T11:49:29;68877.47;;;12.18;39.66
22930;BME280;11630;42.660;23.292;2023-03-18T12:06:08;68718.20;;;10.71;43.08
22930;BME280;11630;42.660;23.292;2023-03-18T12:08:44;68788.14;;;11.41;42.04
22930;BME280;11630;42.660;23.292;2023-03-18T12:23:09;68753.59;;;11.08;43.01
22930;BME280;11630;42.660;23.292;2023-03-18T12:31:32;68819.74;;;11.65;42.62
22930;BME280;11630;42.660;23.292;2023-03-18T12:34:02;68980.22;;;13.15;39.14
22930;BME280;11630;42.660;23.292;2023-03-18T12:36:50;69119.63;;;14.33;38.22
22930;BME280;11630;42.660;23.292;2023-03-18T12:44:51;68890.83;;;12.31;38.21
22930;BME280;11630;42.660;23.292;2023-03-18T12:47:38;68800.11;;;11.47;38.98
22930;BME280;11630;42.660;23.292;2023-03-18T12:50:17;68762.57;;;11.15;40.45
22930;BME280;11630;42.660;23.292;2023-03-18T12:52:55;68848.59;;;11.96;39.26
22930;BME280;11630;42.660;23.292;2023-03-18T12:55:30;68858.14;;;12.04;39.44
22930;BME280;11630;42.660;23.292;2023-03-18T13:01:04;68937.14;;;12.78;39.99
22930;BME280;11630;42.660;23.292;2023-03-18T13:03:38;68952.13;;;12.91;38.31
22930;BME280;11630;42.660;23.292;2023-03-18T13:06:17;69086.05;;;14.11;36.54
22930;BME280;11630;42.660;23.292;2023-03-18T13:08:58;68955.95;;;12.89;37.83
22930;BME280;11630;42.660;23.292;2023-03-18T13:17:00;68662.20;;;10.20;41.90
22930;BME280;11630;42.660;23.292;2023-03-18T13:19:32;68686.66;;;10.45;42.79
22930;BME280;11630;42.660;23.292;2023-03-18T13:22:14;68774.53;;;11.26;41.98
22930;BME280;11630;42.660;23.292;2023-03-18T13:24:47;68988.39;;;13.20;38.13
22930;BME280;11630;42.660;23.292;2023-03-18T13:27:28;68939.30;;;12.80;37.84
22930;BME280;11630;42.660;23.292;2023-03-18T13:30:46;68843.16;;;11.89;38.67
22930;BME280;11630;42.660;23.292;2023-03-18T13:32:56;68849.69;;;12.00;39.15
22930;BME280;11630;42.660;23.292;2023-03-18T13:35:51;68922.95;;;12.65;38.53
22930;BME280;11630;42.660;23.292;2023-03-18T13:44:14;68902.80;;;12.44;37.86
22930;BME280;11630;42.660;23.292;2023-03-18T13:46:51;68781.62;;;11.35;39.99
22930;BME280;11630;42.660;23.292;2023-03-18T13:49:25;68779.44;;;11.33;39.86
22930;BME280;11630;42.660;23.292;2023-03-18T13:51:51;68832.55;;;11.85;38.53
22930;BME280;11630;42.660;23.292;2023-03-18T13:54:27;68913.15;;;12.51;37.97
22930;BME280;11630;42.660;23.292;2023-03-18T13:56:55;69005.02;;;13.31;36.62
22930;BME280;11630;42.660;23.292;2023-03-18T14:02:41;69058.75;;;13.82;35.10
22930;BME280;11630;42.660;23.292;2023-03-18T14:14:01;68943.66;;;12.79;35.76
22930;BME280;11630;42.660;23.292;2023-03-18T14:19:26;68995.75;;;13.28;34.97
22930;BME280;11630;42.660;23.292;2023-03-18T14:22:54;69066.66;;;13.90;34.07
22930;BME280;11630;42.660;23.292;2023-03-18T14:24:40;69125.06;;;14.48;32.88
22930;BME280;11630;42.660;23.292;2023-03-18T14:27:15;69215.45;;;15.27;31.38
22930;BME280;11630;42.660;23.292;2023-03-18T14:29:47;69179.92;;;14.97;32.01
22930;BME280;11630;42.660;23.292;2023-03-18T14:35:29;69186.74;;;15.02;31.91
22930;BME280;11630;42.660;23.292;2023-03-18T14:38:11;69167.91;;;14.83;32.25
22930;BME280;11630;42.660;23.292;2023-03-18T14:40:41;69229.91;;;15.38;30.23
22930;BME280;11630;42.660;23.292;2023-03-18T14:46:04;69129.44;;;14.47;31.51
22930;BME280;11630;42.660;23.292;2023-03-18T14:48:37;69100.23;;;14.27;32.97